首页
METAR-TAF:

METAR-TAF

机场 :

Vieux Fort, 圣卢西亚

纬度: 13-45N, 经度: 060-57W, 海拔: 3米

当前天气观测

该预报发布于21分钟前的21:00 UTC
风速5节,风向东转东北
温度 28°C
湿度 84%
气压 1013 hPa
能见度10公里或以上
少量云层高于1600英尺, 积雨云.
多云层高于3900英尺
小雨

METAR: TLPL 262100Z 06005KT 9999 -RA EW008 FEW016CB BKN039 28/25 Q1013 TEMPO SHRA

时间: 17:21 (21:21 UTC)

预报

该预报发布于4小时和21分钟前的17:00 UTC
预报有效从26日的 18点(UTC)到 27日的 18点(UTC)
风速10节,风向
能见度10公里或以上
散云层高于2000英尺
几率 40% :
短暂存在
从 26日的 18点(UTC)到 26日的 24点(UTC)
能見度: 5000
阵雨,

TAF: TLPL 261700Z 2618/2718 10010KT 9999 SCT020 PROB40 TEMPO 2618/2624 5000 SHRA

超过4000个机场的气象观测和天气预报(METAR&TAF报告)。

可查询的气象台以黄色和红色小点在地图上表示。

将鼠标移到小点上方,可查看气象台名称。

然后点击查看天气观测和预报。

如需切换地图:点击带黑十字的绿色按钮放大地图;点击带横线的绿色按钮缩小地图;或者点击绿色箭头查看邻近地区的地图。


METAR-TAF: